sensor_id;sensor_type;location;lat;lon;timestamp;P1;durP1;ratioP1;P2;durP2;ratioP2
6517;SDS011;3292;48.944;9.240;2022-08-01T00:02:17;3.37;;;2.30;;
6517;SDS011;3292;48.944;9.240;2022-08-01T00:04:46;3.10;;;2.53;;
6517;SDS011;3292;48.944;9.240;2022-08-01T00:07:15;2.93;;;2.20;;
6517;SDS011;3292;48.944;9.240;2022-08-01T00:09:42;2.80;;;2.33;;
6517;SDS011;3292;48.944;9.240;2022-08-01T00:12:09;2.60;;;2.40;;
6517;SDS011;3292;48.944;9.240;2022-08-01T00:14:35;2.43;;;2.10;;
6517;SDS011;3292;48.944;9.240;2022-08-01T00:17:02;2.07;;;1.93;;
6517;SDS011;3292;48.944;9.240;2022-08-01T00:19:29;3.77;;;2.30;;
6517;SDS011;3292;48.944;9.240;2022-08-01T00:21:58;5.33;;;2.47;;
6517;SDS011;3292;48.944;9.240;2022-08-01T00:24:25;2.87;;;2.23;;
6517;SDS011;3292;48.944;9.240;2022-08-01T00:26:51;2.47;;;2.27;;
6517;SDS011;3292;48.944;9.240;2022-08-01T00:29:18;3.07;;;2.50;;
6517;SDS011;3292;48.944;9.240;2022-08-01T00:31:45;4.90;;;2.67;;
6517;SDS011;3292;48.944;9.240;2022-08-01T00:34:12;3.20;;;2.57;;
6517;SDS011;3292;48.944;9.240;2022-08-01T00:36:39;3.40;;;2.40;;
6517;SDS011;3292;48.944;9.240;2022-08-01T00:39:07;2.50;;;2.30;;
6517;SDS011;3292;48.944;9.240;2022-08-01T00:41:34;2.43;;;2.23;;
6517;SDS011;3292;48.944;9.240;2022-08-01T00:44:02;3.93;;;2.30;;
6517;SDS011;3292;48.944;9.240;2022-08-01T00:46:30;2.67;;;2.47;;
6517;SDS011;3292;48.944;9.240;2022-08-01T00:48:56;2.53;;;2.33;;
6517;SDS011;3292;48.944;9.240;2022-08-01T00:51:24;2.70;;;2.50;;
6517;SDS011;3292;48.944;9.240;2022-08-01T00:53:51;3.50;;;2.27;;
6517;SDS011;3292;48.944;9.240;2022-08-01T00:56:21;3.13;;;2.27;;
6517;SDS011;3292;48.944;9.240;2022-08-01T00:58:51;3.17;;;2.20;;
6517;SDS011;3292;48.944;9.240;2022-08-01T01:01:18;2.77;;;2.30;;
6517;SDS011;3292;48.944;9.240;2022-08-01T01:03:47;4.37;;;2.80;;
6517;SDS011;3292;48.944;9.240;2022-08-01T01:06:21;2.47;;;2.27;;
6517;SDS011;3292;48.944;9.240;2022-08-01T01:08:54;3.00;;;2.50;;
6517;SDS011;3292;48.944;9.240;2022-08-01T01:11:31;3.47;;;2.53;;
6517;SDS011;3292;48.944;9.240;2022-08-01T01:14:08;3.80;;;2.50;;
6517;SDS011;3292;48.944;9.240;2022-08-01T01:16:40;2.50;;;2.30;;
6517;SDS011;3292;48.944;9.240;2022-08-01T01:19:09;2.50;;;2.30;;
6517;SDS011;3292;48.944;9.240;2022-08-01T01:21:54;2.83;;;2.10;;
6517;SDS011;3292;48.944;9.240;2022-08-01T01:24:37;2.77;;;2.50;;
6517;SDS011;3292;48.944;9.240;2022-08-01T01:27:14;2.60;;;2.40;;
6517;SDS011;3292;48.944;9.240;2022-08-01T01:29:49;5.00;;;2.60;;
6517;SDS011;3292;48.944;9.240;2022-08-01T01:32:20;2.53;;;2.33;;
6517;SDS011;3292;48.944;9.240;2022-08-01T01:34:53;3.27;;;2.67;;
6517;SDS011;3292;48.944;9.240;2022-08-01T01:37:21;4.30;;;2.80;;
6517;SDS011;3292;48.944;9.240;2022-08-01T01:39:51;3.93;;;2.57;;
6517;SDS011;3292;48.944;9.240;2022-08-01T01:42:19;3.13;;;2.40;;
6517;SDS011;3292;48.944;9.240;2022-08-01T01:44:49;3.00;;;2.70;;
6517;SDS011;3292;48.944;9.240;2022-08-01T01:47:17;3.50;;;2.50;;
6517;SDS011;3292;48.944;9.240;2022-08-01T01:49:44;4.63;;;2.37;;
6517;SDS011;3292;48.944;9.240;2022-08-01T01:52:14;2.97;;;2.60;;
6517;SDS011;3292;48.944;9.240;2022-08-01T01:54:45;2.90;;;2.60;;
6517;SDS011;3292;48.944;9.240;2022-08-01T01:57:16;2.80;;;2.60;;
6517;SDS011;3292;48.944;9.240;2022-08-01T01:59:45;3.17;;;2.60;;
6517;SDS011;3292;48.944;9.240;2022-08-01T02:02:16;3.10;;;2.60;;
6517;SDS011;3292;48.944;9.240;2022-08-01T02:04:46;2.77;;;2.57;;
6517;SDS011;3292;48.944;9.240;2022-08-01T02:07:16;2.67;;;2.47;;
6517;SDS011;3292;48.944;9.240;2022-08-01T02:09:45;2.93;;;2.70;;
6517;SDS011;3292;48.944;9.240;2022-08-01T02:12:14;3.00;;;2.60;;
6517;SDS011;3292;48.944;9.240;2022-08-01T02:14:44;2.60;;;2.40;;
6517;SDS011;3292;48.944;9.240;2022-08-01T02:17:16;2.90;;;2.60;;
6517;SDS011;3292;48.944;9.240;2022-08-01T02:19:46;3.60;;;2.60;;
6517;SDS011;3292;48.944;9.240;2022-08-01T02:22:16;2.87;;;2.53;;
6517;SDS011;3292;48.944;9.240;2022-08-01T02:24:49;3.67;;;2.57;;
6517;SDS011;3292;48.944;9.240;2022-08-01T02:27:23;3.73;;;2.40;;
6517;SDS011;3292;48.944;9.240;2022-08-01T02:30:06;2.97;;;2.53;;
6517;SDS011;3292;48.944;9.240;2022-08-01T02:32:36;3.70;;;2.60;;
6517;SDS011;3292;48.944;9.240;2022-08-01T02:35:09;2.50;;;2.30;;
6517;SDS011;3292;48.944;9.240;2022-08-01T02:37:39;2.97;;;2.77;;
6517;SDS011;3292;48.944;9.240;2022-08-01T02:40:11;3.33;;;2.60;;
6517;SDS011;3292;48.944;9.240;2022-08-01T02:42:42;3.73;;;2.73;;
6517;SDS011;3292;48.944;9.240;2022-08-01T02:45:14;3.07;;;2.77;;
6517;SDS011;3292;48.944;9.240;2022-08-01T02:47:46;4.10;;;2.70;;
6517;SDS011;3292;48.944;9.240;2022-08-01T02:50:17;3.53;;;2.70;;
6517;SDS011;3292;48.944;9.240;2022-08-01T02:52:46;3.60;;;2.87;;
6517;SDS011;3292;48.944;9.240;2022-08-01T02:55:17;3.17;;;2.90;;
6517;SDS011;3292;48.944;9.240;2022-08-01T02:57:47;3.10;;;2.80;;
6517;SDS011;3292;48.944;9.240;2022-08-01T03:00:18;3.33;;;2.57;;
6517;SDS011;3292;48.944;9.240;2022-08-01T03:02:48;3.20;;;2.80;;
6517;SDS011;3292;48.944;9.240;2022-08-01T03:05:20;3.00;;;2.80;;
6517;SDS011;3292;48.944;9.240;2022-08-01T03:07:49;3.43;;;2.70;;
6517;SDS011;3292;48.944;9.240;2022-08-01T03:10:21;3.80;;;2.87;;
6517;SDS011;3292;48.944;9.240;2022-08-01T03:12:50;3.23;;;2.60;;
6517;SDS011;3292;48.944;9.240;2022-08-01T03:15:17;3.40;;;3.10;;
6517;SDS011;3292;48.944;9.240;2022-08-01T03:17:45;2.70;;;2.50;;
6517;SDS011;3292;48.944;9.240;2022-08-01T03:20:16;2.90;;;2.67;;
6517;SDS011;3292;48.944;9.240;2022-08-01T03:22:45;3.10;;;2.80;;
6517;SDS011;3292;48.944;9.240;2022-08-01T03:25:16;2.90;;;2.50;;
6517;SDS011;3292;48.944;9.240;2022-08-01T03:27:45;3.43;;;2.80;;
6517;SDS011;3292;48.944;9.240;2022-08-01T03:30:17;5.00;;;2.90;;
6517;SDS011;3292;48.944;9.240;2022-08-01T03:32:49;3.03;;;2.83;;
6517;SDS011;3292;48.944;9.240;2022-08-01T03:35:17;3.10;;;2.80;;
6517;SDS011;3292;48.944;9.240;2022-08-01T03:37:47;3.73;;;2.90;;
6517;SDS011;3292;48.944;9.240;2022-08-01T03:40:20;3.43;;;3.13;;
6517;SDS011;3292;48.944;9.240;2022-08-01T03:42:54;3.27;;;2.80;;
6517;SDS011;3292;48.944;9.240;2022-08-01T03:45:27;3.27;;;2.90;;
6517;SDS011;3292;48.944;9.240;2022-08-01T03:48:05;2.90;;;2.60;;
6517;SDS011;3292;48.944;9.240;2022-08-01T03:50:41;3.60;;;2.83;;
6517;SDS011;3292;48.944;9.240;2022-08-01T03:53:12;3.37;;;2.83;;
6517;SDS011;3292;48.944;9.240;2022-08-01T03:55:42;3.20;;;2.90;;
6517;SDS011;3292;48.944;9.240;2022-08-01T03:58:12;3.47;;;2.33;;
6517;SDS011;3292;48.944;9.240;2022-08-01T04:00:40;3.17;;;2.87;;
6517;SDS011;3292;48.944;9.240;2022-08-01T04:03:11;3.57;;;2.90;;
6517;SDS011;3292;48.944;9.240;2022-08-01T04:05:42;3.33;;;3.03;;
6517;SDS011;3292;48.944;9.240;2022-08-01T04:08:10;3.50;;;3.17;;
6517;SDS011;3292;48.944;9.240;2022-08-01T04:10:40;4.67;;;3.13;;
6517;SDS011;3292;48.944;9.240;2022-08-01T04:13:10;3.03;;;2.83;;
6517;SDS011;3292;48.944;9.240;2022-08-01T04:15:38;3.40;;;2.67;;
6517;SDS011;3292;48.944;9.240;2022-08-01T04:18:06;3.00;;;2.63;;
6517;SDS011;3292;48.944;9.240;2022-08-01T04:20:36;3.57;;;3.17;;
6517;SDS011;3292;48.944;9.240;2022-08-01T04:23:04;4.00;;;3.00;;
6517;SDS011;3292;48.944;9.240;2022-08-01T04:25:33;4.23;;;2.73;;
6517;SDS011;3292;48.944;9.240;2022-08-01T04:28:05;3.53;;;3.13;;
6517;SDS011;3292;48.944;9.240;2022-08-01T04:30:41;2.70;;;2.50;;
6517;SDS011;3292;48.944;9.240;2022-08-01T04:33:13;3.93;;;2.80;;
6517;SDS011;3292;48.944;9.240;2022-08-01T04:35:44;3.20;;;2.90;;
6517;SDS011;3292;48.944;9.240;2022-08-01T04:38:14;2.93;;;2.60;;
6517;SDS011;3292;48.944;9.240;2022-08-01T04:40:44;3.03;;;2.80;;
6517;SDS011;3292;48.944;9.240;2022-08-01T04:43:12;4.13;;;3.17;;
6517;SDS011;3292;48.944;9.240;2022-08-01T04:45:41;3.13;;;2.83;;
6517;SDS011;3292;48.944;9.240;2022-08-01T04:48:11;3.20;;;2.90;;
6517;SDS011;3292;48.944;9.240;2022-08-01T04:50:41;3.17;;;2.87;;
6517;SDS011;3292;48.944;9.240;2022-08-01T04:53:15;3.07;;;2.70;;
6517;SDS011;3292;48.944;9.240;2022-08-01T04:55:43;2.90;;;2.60;;
6517;SDS011;3292;48.944;9.240;2022-08-01T04:58:11;5.17;;;3.10;;
6517;SDS011;3292;48.944;9.240;2022-08-01T05:00:41;3.93;;;2.83;;
6517;SDS011;3292;48.944;9.240;2022-08-01T05:03:10;2.97;;;2.67;;
6517;SDS011;3292;48.944;9.240;2022-08-01T05:05:41;2.97;;;2.77;;
6517;SDS011;3292;48.944;9.240;2022-08-01T05:08:09;4.00;;;3.10;;
6517;SDS011;3292;48.944;9.240;2022-08-01T05:10:36;4.37;;;3.20;;
6517;SDS011;3292;48.944;9.240;2022-08-01T05:13:04;10.63;;;3.70;;
6517;SDS011;3292;48.944;9.240;2022-08-01T05:15:33;6.57;;;3.00;;
6517;SDS011;3292;48.944;9.240;2022-08-01T05:18:03;6.00;;;3.00;;
6517;SDS011;3292;48.944;9.240;2022-08-01T05:20:32;9.20;;;3.20;;
6517;SDS011;3292;48.944;9.240;2022-08-01T05:23:00;4.63;;;3.10;;
6517;SDS011;3292;48.944;9.240;2022-08-01T05:25:29;8.23;;;2.90;;
6517;SDS011;3292;48.944;9.240;2022-08-01T05:27:57;4.67;;;2.73;;
6517;SDS011;3292;48.944;9.240;2022-08-01T05:30:25;7.67;;;3.40;;
6517;SDS011;3292;48.944;9.240;2022-08-01T05:32:53;4.80;;;3.20;;
6517;SDS011;3292;48.944;9.240;2022-08-01T05:35:21;4.23;;;2.80;;
6517;SDS011;3292;48.944;9.240;2022-08-01T05:37:50;5.87;;;3.07;;
6517;SDS011;3292;48.944;9.240;2022-08-01T05:40:17;3.30;;;2.67;;
6517;SDS011;3292;48.944;9.240;2022-08-01T05:42:46;2.77;;;2.57;;
6517;SDS011;3292;48.944;9.240;2022-08-01T05:45:13;3.03;;;2.63;;
6517;SDS011;3292;48.944;9.240;2022-08-01T05:47:40;5.17;;;2.97;;
6517;SDS011;3292;48.944;9.240;2022-08-01T05:50:07;5.87;;;3.00;;
6517;SDS011;3292;48.944;9.240;2022-08-01T05:52:34;4.17;;;2.80;;
6517;SDS011;3292;48.944;9.240;2022-08-01T05:55:01;5.03;;;2.93;;
6517;SDS011;3292;48.944;9.240;2022-08-01T05:57:29;3.43;;;2.80;;
6517;SDS011;3292;48.944;9.240;2022-08-01T05:59:58;4.27;;;2.63;;
6517;SDS011;3292;48.944;9.240;2022-08-01T06:02:24;4.40;;;2.50;;
6517;SDS011;3292;48.944;9.240;2022-08-01T06:04:52;4.83;;;2.40;;
6517;SDS011;3292;48.944;9.240;2022-08-01T06:07:19;7.63;;;2.58;;
6517;SDS011;3292;48.944;9.240;2022-08-01T06:09:46;4.25;;;2.53;;
6517;SDS011;3292;48.944;9.240;2022-08-01T06:12:13;4.25;;;2.60;;
6517;SDS011;3292;48.944;9.240;2022-08-01T06:14:40;7.43;;;2.60;;
6517;SDS011;3292;48.944;9.240;2022-08-01T06:17:08;6.28;;;2.83;;
6517;SDS011;3292;48.944;9.240;2022-08-01T06:19:35;4.72;;;2.50;;
6517;SDS011;3292;48.944;9.240;2022-08-01T06:22:02;4.05;;;2.25;;
6517;SDS011;3292;48.944;9.240;2022-08-01T06:24:28;3.70;;;2.55;;
6517;SDS011;3292;48.944;9.240;2022-08-01T06:26:55;3.47;;;2.28;;
6517;SDS011;3292;48.944;9.240;2022-08-01T06:29:22;2.70;;;2.10;;
6517;SDS011;3292;48.944;9.240;2022-08-01T06:31:49;4.13;;;2.00;;
6517;SDS011;3292;48.944;9.240;2022-08-01T06:34:17;3.47;;;2.13;;
6517;SDS011;3292;48.944;9.240;2022-08-01T06:36:44;2.70;;;2.00;;
6517;SDS011;3292;48.944;9.240;2022-08-01T06:39:11;5.28;;;2.15;;
6517;SDS011;3292;48.944;9.240;2022-08-01T06:41:38;2.20;;;1.90;;
6517;SDS011;3292;48.944;9.240;2022-08-01T06:44:06;2.65;;;2.20;;
6517;SDS011;3292;48.944;9.240;2022-08-01T06:46:34;3.28;;;1.98;;
6517;SDS011;3292;48.944;9.240;2022-08-01T06:49:01;3.58;;;1.80;;
6517;SDS011;3292;48.944;9.240;2022-08-01T06:51:29;2.60;;;1.70;;
6517;SDS011;3292;48.944;9.240;2022-08-01T06:53:56;3.30;;;1.70;;
6517;SDS011;3292;48.944;9.240;2022-08-01T06:56:23;2.10;;;1.70;;
6517;SDS011;3292;48.944;9.240;2022-08-01T06:58:50;2.55;;;1.60;;
6517;SDS011;3292;48.944;9.240;2022-08-01T07:01:21;2.13;;;1.65;;
6517;SDS011;3292;48.944;9.240;2022-08-01T07:03:48;3.22;;;1.73;;
6517;SDS011;3292;48.944;9.240;2022-08-01T07:06:14;1.90;;;1.67;;
6517;SDS011;3292;48.944;9.240;2022-08-01T07:08:43;2.13;;;1.77;;
6517;SDS011;3292;48.944;9.240;2022-08-01T07:11:10;2.60;;;1.83;;
6517;SDS011;3292;48.944;9.240;2022-08-01T07:13:36;3.97;;;1.70;;
6517;SDS011;3292;48.944;9.240;2022-08-01T07:16:03;4.32;;;1.67;;
6517;SDS011;3292;48.944;9.240;2022-08-01T07:18:30;4.20;;;2.05;;
6517;SDS011;3292;48.944;9.240;2022-08-01T07:20:57;2.10;;;1.88;;
6517;SDS011;3292;48.944;9.240;2022-08-01T07:23:24;2.25;;;1.40;;
6517;SDS011;3292;48.944;9.240;2022-08-01T07:28:52;2.25;;;1.58;;
6517;SDS011;3292;48.944;9.240;2022-08-01T07:31:19;1.70;;;1.50;;
6517;SDS011;3292;48.944;9.240;2022-08-01T07:33:46;1.77;;;1.63;;
6517;SDS011;3292;48.944;9.240;2022-08-01T07:36:13;1.92;;;1.67;;
6517;SDS011;3292;48.944;9.240;2022-08-01T07:38:40;2.53;;;1.60;;
6517;SDS011;3292;48.944;9.240;2022-08-01T07:41:06;3.38;;;1.80;;
6517;SDS011;3292;48.944;9.240;2022-08-01T07:43:35;3.65;;;1.80;;
6517;SDS011;3292;48.944;9.240;2022-08-01T07:46:02;2.45;;;1.67;;
6517;SDS011;3292;48.944;9.240;2022-08-01T07:48:29;2.10;;;1.90;;
6517;SDS011;3292;48.944;9.240;2022-08-01T07:50:55;1.60;;;1.50;;
6517;SDS011;3292;48.944;9.240;2022-08-01T07:53:22;2.00;;;1.80;;
6517;SDS011;3292;48.944;9.240;2022-08-01T07:55:49;2.35;;;1.88;;
6517;SDS011;3292;48.944;9.240;2022-08-01T07:58:16;2.00;;;1.65;;
6517;SDS011;3292;48.944;9.240;2022-08-01T08:00:45;3.88;;;1.83;;
6517;SDS011;3292;48.944;9.240;2022-08-01T08:03:11;3.67;;;1.95;;
6517;SDS011;3292;48.944;9.240;2022-08-01T08:05:38;3.90;;;1.80;;
6517;SDS011;3292;48.944;9.240;2022-08-01T08:08:06;3.15;;;1.80;;
6517;SDS011;3292;48.944;9.240;2022-08-01T08:10:33;4.07;;;1.88;;
6517;SDS011;3292;48.944;9.240;2022-08-01T08:13:00;2.72;;;1.77;;
6517;SDS011;3292;48.944;9.240;2022-08-01T08:15:28;2.20;;;1.60;;
6517;SDS011;3292;48.944;9.240;2022-08-01T08:17:56;2.90;;;1.83;;
6517;SDS011;3292;48.944;9.240;2022-08-01T08:20:23;3.97;;;2.00;;
6517;SDS011;3292;48.944;9.240;2022-08-01T08:22:52;1.75;;;1.60;;
6517;SDS011;3292;48.944;9.240;2022-08-01T08:25:19;1.90;;;1.80;;
6517;SDS011;3292;48.944;9.240;2022-08-01T08:27:46;2.60;;;1.90;;
6517;SDS011;3292;48.944;9.240;2022-08-01T08:30:14;2.75;;;1.67;;
6517;SDS011;3292;48.944;9.240;2022-08-01T08:32:41;2.67;;;1.83;;
6517;SDS011;3292;48.944;9.240;2022-08-01T08:35:09;2.20;;;2.00;;
6517;SDS011;3292;48.944;9.240;2022-08-01T08:37:36;2.05;;;1.85;;
6517;SDS011;3292;48.944;9.240;2022-08-01T08:40:04;3.67;;;2.10;;
6517;SDS011;3292;48.944;9.240;2022-08-01T08:42:32;2.20;;;2.00;;
6517;SDS011;3292;48.944;9.240;2022-08-01T08:45:00;3.17;;;2.10;;
6517;SDS011;3292;48.944;9.240;2022-08-01T08:47:27;2.22;;;1.70;;
6517;SDS011;3292;48.944;9.240;2022-08-01T08:49:57;4.18;;;2.13;;
6517;SDS011;3292;48.944;9.240;2022-08-01T08:52:26;2.20;;;2.00;;
6517;SDS011;3292;48.944;9.240;2022-08-01T08:54:53;2.97;;;2.13;;
6517;SDS011;3292;48.944;9.240;2022-08-01T08:57:21;2.83;;;1.85;;
6517;SDS011;3292;48.944;9.240;2022-08-01T08:59:49;4.85;;;2.20;;
6517;SDS011;3292;48.944;9.240;2022-08-01T09:02:19;2.03;;;1.83;;
6517;SDS011;3292;48.944;9.240;2022-08-01T09:04:46;5.95;;;1.98;;
6517;SDS011;3292;48.944;9.240;2022-08-01T09:07:14;2.30;;;2.00;;
6517;SDS011;3292;48.944;9.240;2022-08-01T09:09:43;2.47;;;1.80;;
6517;SDS011;3292;48.944;9.240;2022-08-01T09:12:09;2.17;;;1.77;;
6517;SDS011;3292;48.944;9.240;2022-08-01T09:14:43;2.85;;;2.00;;
6517;SDS011;3292;48.944;9.240;2022-08-01T09:17:11;2.83;;;1.85;;
6517;SDS011;3292;48.944;9.240;2022-08-01T09:19:39;2.30;;;2.10;;
6517;SDS011;3292;48.944;9.240;2022-08-01T09:22:10;2.75;;;2.20;;
6517;SDS011;3292;48.944;9.240;2022-08-01T09:24:38;2.50;;;2.00;;
6517;SDS011;3292;48.944;9.240;2022-08-01T09:27:17;3.58;;;2.17;;
6517;SDS011;3292;48.944;9.240;2022-08-01T09:29:45;2.90;;;2.00;;
6517;SDS011;3292;48.944;9.240;2022-08-01T09:32:27;2.70;;;2.20;;
6517;SDS011;3292;48.944;9.240;2022-08-01T09:34:55;2.72;;;2.10;;
6517;SDS011;3292;48.944;9.240;2022-08-01T09:37:25;2.50;;;2.30;;
6517;SDS011;3292;48.944;9.240;2022-08-01T09:39:56;3.15;;;2.42;;
6517;SDS011;3292;48.944;9.240;2022-08-01T09:42:25;3.15;;;2.35;;
6517;SDS011;3292;48.944;9.240;2022-08-01T09:44:53;3.42;;;2.80;;
6517;SDS011;3292;48.944;9.240;2022-08-01T09:47:20;3.72;;;3.15;;
6517;SDS011;3292;48.944;9.240;2022-08-01T09:49:52;4.05;;;2.90;;
6517;SDS011;3292;48.944;9.240;2022-08-01T09:52:21;3.90;;;2.58;;
6517;SDS011;3292;48.944;9.240;2022-08-01T09:54:51;3.60;;;2.83;;
6517;SDS011;3292;48.944;9.240;2022-08-01T09:57:19;4.80;;;2.83;;
6517;SDS011;3292;48.944;9.240;2022-08-01T09:59:48;3.95;;;2.85;;
6517;SDS011;3292;48.944;9.240;2022-08-01T10:02:26;4.03;;;2.80;;
6517;SDS011;3292;48.944;9.240;2022-08-01T10:04:54;3.83;;;3.03;;
6517;SDS011;3292;48.944;9.240;2022-08-01T10:07:21;5.15;;;2.65;;
6517;SDS011;3292;48.944;9.240;2022-08-01T10:09:48;3.63;;;2.67;;
6517;SDS011;3292;48.944;9.240;2022-08-01T10:12:16;3.85;;;2.67;;
6517;SDS011;3292;48.944;9.240;2022-08-01T10:14:45;2.88;;;2.67;;
6517;SDS011;3292;48.944;9.240;2022-08-01T10:17:16;3.05;;;2.25;;
6517;SDS011;3292;48.944;9.240;2022-08-01T10:19:47;3.75;;;2.60;;
6517;SDS011;3292;48.944;9.240;2022-08-01T10:22:19;2.78;;;2.58;;
6517;SDS011;3292;48.944;9.240;2022-08-01T10:24:50;3.65;;;2.75;;
6517;SDS011;3292;48.944;9.240;2022-08-01T10:27:20;4.50;;;2.83;;
6517;SDS011;3292;48.944;9.240;2022-08-01T10:29:51;3.20;;;2.40;;
6517;SDS011;3292;48.944;9.240;2022-08-01T10:32:21;4.30;;;2.60;;
6517;SDS011;3292;48.944;9.240;2022-08-01T10:34:48;5.10;;;2.70;;
6517;SDS011;3292;48.944;9.240;2022-08-01T10:37:15;3.72;;;2.80;;
6517;SDS011;3292;48.944;9.240;2022-08-01T10:39:43;2.60;;;2.40;;
6517;SDS011;3292;48.944;9.240;2022-08-01T10:42:10;3.72;;;2.40;;
6517;SDS011;3292;48.944;9.240;2022-08-01T10:44:38;3.58;;;2.20;;
6517;SDS011;3292;48.944;9.240;2022-08-01T10:47:08;2.53;;;2.20;;
6517;SDS011;3292;48.944;9.240;2022-08-01T10:49:39;4.68;;;2.30;;
6517;SDS011;3292;48.944;9.240;2022-08-01T10:52:13;3.08;;;2.13;;
6517;SDS011;3292;48.944;9.240;2022-08-01T10:54:41;2.30;;;2.10;;
6517;SDS011;3292;48.944;9.240;2022-08-01T10:57:09;4.65;;;2.30;;
6517;SDS011;3292;48.944;9.240;2022-08-01T10:59:47;2.50;;;2.30;;
6517;SDS011;3292;48.944;9.240;2022-08-01T11:02:26;2.85;;;2.00;;
6517;SDS011;3292;48.944;9.240;2022-08-01T11:04:55;2.30;;;2.10;;
6517;SDS011;3292;48.944;9.240;2022-08-01T11:07:34;2.38;;;2.13;;
6517;SDS011;3292;48.944;9.240;2022-08-01T11:10:14;2.67;;;2.08;;
6517;SDS011;3292;48.944;9.240;2022-08-01T11:12:47;2.00;;;1.80;;
6517;SDS011;3292;48.944;9.240;2022-08-01T11:15:21;4.05;;;2.20;;
6517;SDS011;3292;48.944;9.240;2022-08-01T11:17:54;2.70;;;2.05;;
6517;SDS011;3292;48.944;9.240;2022-08-01T11:20:22;1.80;;;1.70;;
6517;SDS011;3292;48.944;9.240;2022-08-01T11:26:09;2.22;;;2.00;;
6517;SDS011;3292;48.944;9.240;2022-08-01T11:28:41;3.45;;;2.05;;
6517;SDS011;3292;48.944;9.240;2022-08-01T11:31:29;2.17;;;1.83;;
6517;SDS011;3292;48.944;9.240;2022-08-01T11:33:58;3.58;;;2.05;;
6517;SDS011;3292;48.944;9.240;2022-08-01T11:36:26;1.85;;;1.75;;
6517;SDS011;3292;48.944;9.240;2022-08-01T11:39:12;3.15;;;1.80;;
6517;SDS011;3292;48.944;9.240;2022-08-01T11:41:41;2.03;;;1.90;;
6517;SDS011;3292;48.944;9.240;2022-08-01T11:44:09;2.00;;;1.75;;
6517;SDS011;3292;48.944;9.240;2022-08-01T11:46:44;5.80;;;2.20;;
6517;SDS011;3292;48.944;9.240;2022-08-01T11:49:23;5.40;;;2.10;;
6517;SDS011;3292;48.944;9.240;2022-08-01T11:51:56;2.78;;;1.85;;
6517;SDS011;3292;48.944;9.240;2022-08-01T11:54:25;3.35;;;1.98;;
6517;SDS011;3292;48.944;9.240;2022-08-01T11:56:57;2.65;;;1.70;;
6517;SDS011;3292;48.944;9.240;2022-08-01T11:59:25;2.38;;;1.90;;
6517;SDS011;3292;48.944;9.240;2022-08-01T12:01:53;2.20;;;2.00;;
6517;SDS011;3292;48.944;9.240;2022-08-01T12:04:20;1.80;;;1.70;;
6517;SDS011;3292;48.944;9.240;2022-08-01T12:06:48;2.65;;;1.73;;
6517;SDS011;3292;48.944;9.240;2022-08-01T12:09:16;1.70;;;1.60;;
6517;SDS011;3292;48.944;9.240;2022-08-01T12:11:44;2.03;;;1.75;;
6517;SDS011;3292;48.944;9.240;2022-08-01T12:14:15;2.03;;;1.67;;
6517;SDS011;3292;48.944;9.240;2022-08-01T12:16:48;1.88;;;1.50;;
6517;SDS011;3292;48.944;9.240;2022-08-01T12:19:20;2.55;;;2.10;;
6517;SDS011;3292;48.944;9.240;2022-08-01T12:22:08;2.90;;;2.03;;
6517;SDS011;3292;48.944;9.240;2022-08-01T12:24:37;1.77;;;1.63;;
6517;SDS011;3292;48.944;9.240;2022-08-01T12:27:05;2.28;;;1.88;;
6517;SDS011;3292;48.944;9.240;2022-08-01T12:29:33;4.25;;;1.77;;
6517;SDS011;3292;48.944;9.240;2022-08-01T12:32:01;2.00;;;1.80;;
6517;SDS011;3292;48.944;9.240;2022-08-01T12:34:28;2.38;;;1.80;;
6517;SDS011;3292;48.944;9.240;2022-08-01T12:36:59;3.08;;;1.77;;
6517;SDS011;3292;48.944;9.240;2022-08-01T12:39:35;2.15;;;1.95;;
6517;SDS011;3292;48.944;9.240;2022-08-01T12:42:05;2.67;;;1.92;;
6517;SDS011;3292;48.944;9.240;2022-08-01T12:44:33;2.55;;;1.70;;
6517;SDS011;3292;48.944;9.240;2022-08-01T12:47:00;2.10;;;1.80;;
6517;SDS011;3292;48.944;9.240;2022-08-01T12:49:28;1.70;;;1.60;;
6517;SDS011;3292;48.944;9.240;2022-08-01T12:51:55;2.30;;;1.70;;
6517;SDS011;3292;48.944;9.240;2022-08-01T12:54:23;1.95;;;1.60;;
6517;SDS011;3292;48.944;9.240;2022-08-01T12:56:52;2.00;;;1.70;;
6517;SDS011;3292;48.944;9.240;2022-08-01T12:59:19;1.92;;;1.80;;
6517;SDS011;3292;48.944;9.240;2022-08-01T13:01:49;1.95;;;1.58;;
6517;SDS011;3292;48.944;9.240;2022-08-01T13:04:15;1.92;;;1.80;;
6517;SDS011;3292;48.944;9.240;2022-08-01T13:06:42;1.88;;;1.77;;
6517;SDS011;3292;48.944;9.240;2022-08-01T13:09:09;2.40;;;1.75;;
6517;SDS011;3292;48.944;9.240;2022-08-01T13:11:39;4.20;;;1.95;;
6517;SDS011;3292;48.944;9.240;2022-08-01T13:14:09;2.58;;;1.70;;
6517;SDS011;3292;48.944;9.240;2022-08-01T13:16:45;2.72;;;1.75;;
6517;SDS011;3292;48.944;9.240;2022-08-01T13:19:13;5.82;;;1.83;;
6517;SDS011;3292;48.944;9.240;2022-08-01T13:21:52;3.17;;;1.70;;
6517;SDS011;3292;48.944;9.240;2022-08-01T13:24:24;1.67;;;1.58;;
6517;SDS011;3292;48.944;9.240;2022-08-01T13:26:55;1.98;;;1.80;;
6517;SDS011;3292;48.944;9.240;2022-08-01T13:29:33;2.10;;;1.67;;
6517;SDS011;3292;48.944;9.240;2022-08-01T13:32:11;2.55;;;1.73;;
6517;SDS011;3292;48.944;9.240;2022-08-01T13:34:39;2.85;;;1.63;;
6517;SDS011;3292;48.944;9.240;2022-08-01T13:37:06;2.55;;;1.77;;
6517;SDS011;3292;48.944;9.240;2022-08-01T13:39:33;2.25;;;2.05;;
6517;SDS011;3292;48.944;9.240;2022-08-01T13:42:09;2.70;;;1.60;;
6517;SDS011;3292;48.944;9.240;2022-08-01T13:44:39;1.92;;;1.65;;
6517;SDS011;3292;48.944;9.240;2022-08-01T13:47:06;4.40;;;1.77;;
6517;SDS011;3292;48.944;9.240;2022-08-01T13:49:34;1.75;;;1.40;;
6517;SDS011;3292;48.944;9.240;2022-08-01T13:52:01;1.60;;;1.40;;
6517;SDS011;3292;48.944;9.240;2022-08-01T13:54:28;3.13;;;1.90;;
6517;SDS011;3292;48.944;9.240;2022-08-01T13:56:56;2.75;;;1.45;;
6517;SDS011;3292;48.944;9.240;2022-08-01T13:59:23;2.22;;;1.40;;
6517;SDS011;3292;48.944;9.240;2022-08-01T14:01:51;2.33;;;1.90;;
6517;SDS011;3292;48.944;9.240;2022-08-01T14:04:18;2.60;;;1.63;;
6517;SDS011;3292;48.944;9.240;2022-08-01T14:06:46;2.22;;;1.80;;
6517;SDS011;3292;48.944;9.240;2022-08-01T14:09:13;2.95;;;1.70;;
6517;SDS011;3292;48.944;9.240;2022-08-01T14:11:41;2.85;;;1.73;;
6517;SDS011;3292;48.944;9.240;2022-08-01T14:14:08;3.00;;;1.65;;
6517;SDS011;3292;48.944;9.240;2022-08-01T14:16:35;2.33;;;2.03;;
6517;SDS011;3292;48.944;9.240;2022-08-01T14:19:04;1.75;;;1.65;;
6517;SDS011;3292;48.944;9.240;2022-08-01T14:21:31;4.03;;;2.00;;
6517;SDS011;3292;48.944;9.240;2022-08-01T14:23:57;2.22;;;1.63;;
6517;SDS011;3292;48.944;9.240;2022-08-01T14:26:24;2.15;;;1.83;;
6517;SDS011;3292;48.944;9.240;2022-08-01T14:28:51;2.75;;;1.80;;
6517;SDS011;3292;48.944;9.240;2022-08-01T14:31:18;1.92;;;1.75;;
6517;SDS011;3292;48.944;9.240;2022-08-01T14:33:45;2.83;;;1.92;;
6517;SDS011;3292;48.944;9.240;2022-08-01T14:36:13;2.80;;;1.73;;
6517;SDS011;3292;48.944;9.240;2022-08-01T14:38:40;1.70;;;1.60;;
6517;SDS011;3292;48.944;9.240;2022-08-01T14:41:07;3.53;;;1.60;;
6517;SDS011;3292;48.944;9.240;2022-08-01T14:43:34;3.15;;;1.98;;
6517;SDS011;3292;48.944;9.240;2022-08-01T14:46:01;2.08;;;1.90;;
6517;SDS011;3292;48.944;9.240;2022-08-01T14:48:29;2.30;;;1.67;;
6517;SDS011;3292;48.944;9.240;2022-08-01T14:50:55;2.92;;;1.90;;
6517;SDS011;3292;48.944;9.240;2022-08-01T14:53:24;2.13;;;1.92;;
6517;SDS011;3292;48.944;9.240;2022-08-01T14:55:51;1.73;;;1.63;;
6517;SDS011;3292;48.944;9.240;2022-08-01T14:58:17;2.60;;;2.08;;
6517;SDS011;3292;48.944;9.240;2022-08-01T15:00:44;2.65;;;1.70;;
6517;SDS011;3292;48.944;9.240;2022-08-01T15:03:11;1.90;;;1.80;;
6517;SDS011;3292;48.944;9.240;2022-08-01T15:05:38;1.95;;;1.75;;
6517;SDS011;3292;48.944;9.240;2022-08-01T15:08:05;2.25;;;1.80;;
6517;SDS011;3292;48.944;9.240;2022-08-01T15:10:37;3.25;;;1.70;;
6517;SDS011;3292;48.944;9.240;2022-08-01T15:13:04;2.40;;;1.60;;
6517;SDS011;3292;48.944;9.240;2022-08-01T15:15:30;2.30;;;1.60;;
6517;SDS011;3292;48.944;9.240;2022-08-01T15:17:57;1.77;;;1.67;;
6517;SDS011;3292;48.944;9.240;2022-08-01T15:20:36;4.32;;;1.77;;
6517;SDS011;3292;48.944;9.240;2022-08-01T15:23:03;2.85;;;1.70;;
6517;SDS011;3292;48.944;9.240;2022-08-01T15:25:29;2.05;;;1.63;;
6517;SDS011;3292;48.944;9.240;2022-08-01T15:27:58;1.85;;;1.67;;
6517;SDS011;3292;48.944;9.240;2022-08-01T15:30:25;1.70;;;1.60;;
6517;SDS011;3292;48.944;9.240;2022-08-01T15:32:51;1.88;;;1.67;;
6517;SDS011;3292;48.944;9.240;2022-08-01T15:35:18;1.77;;;1.45;;